sensor_id;sensor_type;location;lat;lon;timestamp;P1;durP1;ratioP1;P2;durP2;ratioP2
1128;SDS011;553;51.038;7.216;2023-02-22T00:00:41;35.20;;;18.77;;
1128;SDS011;553;51.038;7.216;2023-02-22T00:03:09;33.70;;;18.60;;
1128;SDS011;553;51.038;7.216;2023-02-22T00:05:40;35.33;;;20.00;;
1128;SDS011;553;51.038;7.216;2023-02-22T00:08:12;36.40;;;18.07;;
1128;SDS011;553;51.038;7.216;2023-02-22T00:10:40;31.27;;;17.63;;
1128;SDS011;553;51.038;7.216;2023-02-22T00:13:08;40.80;;;21.10;;
1128;SDS011;553;51.038;7.216;2023-02-22T00:15:36;37.30;;;19.07;;
1128;SDS011;553;51.038;7.216;2023-02-22T00:18:08;34.90;;;18.43;;
1128;SDS011;553;51.038;7.216;2023-02-22T00:20:39;35.90;;;18.80;;
1128;SDS011;553;51.038;7.216;2023-02-22T00:23:07;37.60;;;19.87;;
1128;SDS011;553;51.038;7.216;2023-02-22T00:25:39;57.90;;;24.83;;
1128;SDS011;553;51.038;7.216;2023-02-22T00:28:06;66.00;;;28.67;;
1128;SDS011;553;51.038;7.216;2023-02-22T00:30:33;65.73;;;26.00;;
1128;SDS011;553;51.038;7.216;2023-02-22T00:33:00;57.30;;;27.00;;
1128;SDS011;553;51.038;7.216;2023-02-22T00:35:28;79.90;;;31.83;;
1128;SDS011;553;51.038;7.216;2023-02-22T00:37:59;67.83;;;29.27;;
1128;SDS011;553;51.038;7.216;2023-02-22T00:40:29;77.03;;;31.07;;
1128;SDS011;553;51.038;7.216;2023-02-22T00:42:58;72.97;;;30.53;;
1128;SDS011;553;51.038;7.216;2023-02-22T00:45:27;76.50;;;31.10;;
1128;SDS011;553;51.038;7.216;2023-02-22T00:47:55;72.43;;;29.90;;
1128;SDS011;553;51.038;7.216;2023-02-22T00:50:23;71.67;;;31.37;;
1128;SDS011;553;51.038;7.216;2023-02-22T00:52:52;76.20;;;30.50;;
1128;SDS011;553;51.038;7.216;2023-02-22T00:55:20;79.47;;;32.37;;
1128;SDS011;553;51.038;7.216;2023-02-22T00:57:52;81.40;;;32.50;;
1128;SDS011;553;51.038;7.216;2023-02-22T01:00:22;74.03;;;34.00;;
1128;SDS011;553;51.038;7.216;2023-02-22T01:02:53;83.47;;;33.83;;
1128;SDS011;553;51.038;7.216;2023-02-22T01:05:23;78.70;;;31.90;;
1128;SDS011;553;51.038;7.216;2023-02-22T01:07:52;82.90;;;33.30;;
1128;SDS011;553;51.038;7.216;2023-02-22T01:10:24;80.80;;;32.40;;
1128;SDS011;553;51.038;7.216;2023-02-22T01:12:52;91.57;;;36.43;;
1128;SDS011;553;51.038;7.216;2023-02-22T01:15:20;72.87;;;32.33;;
1128;SDS011;553;51.038;7.216;2023-02-22T01:17:50;76.37;;;31.37;;
1128;SDS011;553;51.038;7.216;2023-02-22T01:20:19;80.10;;;31.50;;
1128;SDS011;553;51.038;7.216;2023-02-22T01:22:55;88.07;;;33.67;;
1128;SDS011;553;51.038;7.216;2023-02-22T01:25:25;90.40;;;34.10;;
1128;SDS011;553;51.038;7.216;2023-02-22T01:27:53;90.43;;;32.93;;
1128;SDS011;553;51.038;7.216;2023-02-22T01:30:24;82.43;;;34.77;;
1128;SDS011;553;51.038;7.216;2023-02-22T01:32:53;94.60;;;35.37;;
1128;SDS011;553;51.038;7.216;2023-02-22T01:35:22;84.60;;;35.07;;
1128;SDS011;553;51.038;7.216;2023-02-22T01:37:51;95.83;;;37.10;;
1128;SDS011;553;51.038;7.216;2023-02-22T01:40:23;92.57;;;35.70;;
1128;SDS011;553;51.038;7.216;2023-02-22T01:42:53;84.23;;;34.07;;
1128;SDS011;553;51.038;7.216;2023-02-22T01:47:56;88.03;;;33.80;;
1128;SDS011;553;51.038;7.216;2023-02-22T01:50:36;81.57;;;34.50;;
1128;SDS011;553;51.038;7.216;2023-02-22T01:53:08;78.57;;;31.67;;
1128;SDS011;553;51.038;7.216;2023-02-22T01:55:37;76.27;;;32.70;;
1128;SDS011;553;51.038;7.216;2023-02-22T01:58:04;83.90;;;34.67;;
1128;SDS011;553;51.038;7.216;2023-02-22T02:00:32;78.20;;;33.50;;
1128;SDS011;553;51.038;7.216;2023-02-22T02:03:01;80.57;;;34.30;;
1128;SDS011;553;51.038;7.216;2023-02-22T02:05:34;83.90;;;34.03;;
1128;SDS011;553;51.038;7.216;2023-02-22T02:08:22;67.30;;;31.60;;
1128;SDS011;553;51.038;7.216;2023-02-22T02:10:53;76.73;;;34.10;;
1128;SDS011;553;51.038;7.216;2023-02-22T02:13:21;75.17;;;33.63;;
1128;SDS011;553;51.038;7.216;2023-02-22T02:15:49;88.53;;;34.40;;
1128;SDS011;553;51.038;7.216;2023-02-22T02:18:20;88.40;;;31.47;;
1128;SDS011;553;51.038;7.216;2023-02-22T02:37:47;74.80;;;31.60;;
1128;SDS011;553;51.038;7.216;2023-02-22T02:48:29;80.50;;;34.50;;
1128;SDS011;553;51.038;7.216;2023-02-22T02:51:01;81.27;;;34.80;;
1128;SDS011;553;51.038;7.216;2023-02-22T02:53:36;81.10;;;33.60;;
1128;SDS011;553;51.038;7.216;2023-02-22T02:56:06;65.03;;;31.03;;
1128;SDS011;553;51.038;7.216;2023-02-22T02:58:33;77.97;;;33.10;;
1128;SDS011;553;51.038;7.216;2023-02-22T03:04:56;77.77;;;32.00;;
1128;SDS011;553;51.038;7.216;2023-02-22T03:18:28;72.67;;;30.30;;
1128;SDS011;553;51.038;7.216;2023-02-22T03:21:08;65.33;;;31.20;;
1128;SDS011;553;51.038;7.216;2023-02-22T03:26:40;68.03;;;30.10;;
1128;SDS011;553;51.038;7.216;2023-02-22T03:29:12;59.17;;;28.10;;
1128;SDS011;553;51.038;7.216;2023-02-22T03:31:44;68.97;;;30.60;;
1128;SDS011;553;51.038;7.216;2023-02-22T03:34:22;65.37;;;30.30;;
1128;SDS011;553;51.038;7.216;2023-02-22T03:36:58;70.67;;;31.80;;
1128;SDS011;553;51.038;7.216;2023-02-22T03:39:27;67.83;;;31.40;;
1128;SDS011;553;51.038;7.216;2023-02-22T03:42:05;70.50;;;31.50;;
1128;SDS011;553;51.038;7.216;2023-02-22T03:44:37;63.90;;;30.80;;
1128;SDS011;553;51.038;7.216;2023-02-22T03:47:07;59.47;;;28.27;;
1128;SDS011;553;51.038;7.216;2023-02-22T03:49:44;59.13;;;30.77;;
1128;SDS011;553;51.038;7.216;2023-02-22T03:52:18;65.13;;;30.90;;
1128;SDS011;553;51.038;7.216;2023-02-22T03:54:49;64.07;;;31.77;;
1128;SDS011;553;51.038;7.216;2023-02-22T03:57:25;65.63;;;31.73;;
1128;SDS011;553;51.038;7.216;2023-02-22T04:00:04;67.07;;;29.97;;
1128;SDS011;553;51.038;7.216;2023-02-22T04:02:39;62.87;;;29.70;;
1128;SDS011;553;51.038;7.216;2023-02-22T04:05:11;64.83;;;30.17;;
1128;SDS011;553;51.038;7.216;2023-02-22T04:07:40;70.37;;;30.20;;
1128;SDS011;553;51.038;7.216;2023-02-22T04:10:09;60.70;;;30.97;;
1128;SDS011;553;51.038;7.216;2023-02-22T04:12:37;70.73;;;30.73;;
1128;SDS011;553;51.038;7.216;2023-02-22T04:15:06;56.53;;;27.80;;
1128;SDS011;553;51.038;7.216;2023-02-22T04:17:34;65.53;;;29.83;;
1128;SDS011;553;51.038;7.216;2023-02-22T04:20:02;60.37;;;27.93;;
1128;SDS011;553;51.038;7.216;2023-02-22T04:22:41;56.40;;;27.77;;
1128;SDS011;553;51.038;7.216;2023-02-22T04:25:08;59.73;;;29.80;;
1128;SDS011;553;51.038;7.216;2023-02-22T04:27:35;54.77;;;29.37;;
1128;SDS011;553;51.038;7.216;2023-02-22T04:30:02;58.43;;;26.50;;
1128;SDS011;553;51.038;7.216;2023-02-22T04:32:31;55.27;;;26.63;;
1128;SDS011;553;51.038;7.216;2023-02-22T04:34:58;48.93;;;24.87;;
1128;SDS011;553;51.038;7.216;2023-02-22T04:37:26;61.07;;;28.30;;
1128;SDS011;553;51.038;7.216;2023-02-22T04:39:54;59.20;;;28.23;;
1128;SDS011;553;51.038;7.216;2023-02-22T04:42:20;62.00;;;30.80;;
1128;SDS011;553;51.038;7.216;2023-02-22T04:44:47;55.83;;;28.43;;
1128;SDS011;553;51.038;7.216;2023-02-22T04:47:14;46.57;;;27.20;;
1128;SDS011;553;51.038;7.216;2023-02-22T04:49:41;57.93;;;27.93;;
1128;SDS011;553;51.038;7.216;2023-02-22T04:52:07;60.73;;;25.87;;
1128;SDS011;553;51.038;7.216;2023-02-22T04:54:36;46.77;;;26.70;;
1128;SDS011;553;51.038;7.216;2023-02-22T04:57:03;54.53;;;27.50;;
1128;SDS011;553;51.038;7.216;2023-02-22T04:59:32;53.53;;;27.93;;
1128;SDS011;553;51.038;7.216;2023-02-22T05:01:59;61.90;;;29.23;;
1128;SDS011;553;51.038;7.216;2023-02-22T05:04:26;51.57;;;25.93;;
1128;SDS011;553;51.038;7.216;2023-02-22T05:06:53;67.87;;;28.57;;
1128;SDS011;553;51.038;7.216;2023-02-22T05:09:20;60.60;;;29.87;;
1128;SDS011;553;51.038;7.216;2023-02-22T05:11:47;56.93;;;28.93;;
1128;SDS011;553;51.038;7.216;2023-02-22T05:14:14;60.57;;;29.97;;
1128;SDS011;553;51.038;7.216;2023-02-22T05:16:41;62.93;;;29.87;;
1128;SDS011;553;51.038;7.216;2023-02-22T05:19:07;67.37;;;33.30;;
1128;SDS011;553;51.038;7.216;2023-02-22T05:21:34;64.03;;;29.50;;
1128;SDS011;553;51.038;7.216;2023-02-22T05:24:01;62.87;;;32.10;;
1128;SDS011;553;51.038;7.216;2023-02-22T05:26:27;57.23;;;29.93;;
1128;SDS011;553;51.038;7.216;2023-02-22T05:28:54;67.23;;;32.40;;
1128;SDS011;553;51.038;7.216;2023-02-22T05:31:21;58.83;;;30.00;;
1128;SDS011;553;51.038;7.216;2023-02-22T05:33:48;64.97;;;33.13;;
1128;SDS011;553;51.038;7.216;2023-02-22T05:36:14;68.10;;;33.80;;
1128;SDS011;553;51.038;7.216;2023-02-22T05:38:41;75.90;;;33.90;;
1128;SDS011;553;51.038;7.216;2023-02-22T05:41:11;51.37;;;28.10;;
1128;SDS011;553;51.038;7.216;2023-02-22T05:43:39;50.47;;;28.10;;
1128;SDS011;553;51.038;7.216;2023-02-22T05:46:06;52.13;;;30.07;;
1128;SDS011;553;51.038;7.216;2023-02-22T05:48:33;65.17;;;32.07;;
1128;SDS011;553;51.038;7.216;2023-02-22T05:51:00;55.53;;;27.97;;
1128;SDS011;553;51.038;7.216;2023-02-22T05:53:26;70.07;;;32.50;;
1128;SDS011;553;51.038;7.216;2023-02-22T05:55:53;68.50;;;32.97;;
1128;SDS011;553;51.038;7.216;2023-02-22T05:58:20;67.20;;;32.80;;
1128;SDS011;553;51.038;7.216;2023-02-22T06:00:47;59.37;;;30.70;;
1128;SDS011;553;51.038;7.216;2023-02-22T06:03:14;72.97;;;35.40;;
1128;SDS011;553;51.038;7.216;2023-02-22T06:05:40;65.30;;;32.73;;
1128;SDS011;553;51.038;7.216;2023-02-22T06:08:07;71.50;;;34.90;;
1128;SDS011;553;51.038;7.216;2023-02-22T06:10:34;61.17;;;32.30;;
1128;SDS011;553;51.038;7.216;2023-02-22T06:13:02;61.43;;;29.70;;
1128;SDS011;553;51.038;7.216;2023-02-22T06:15:30;60.97;;;29.00;;
1128;SDS011;553;51.038;7.216;2023-02-22T06:17:57;55.43;;;29.40;;
1128;SDS011;553;51.038;7.216;2023-02-22T06:20:26;54.10;;;28.47;;
1128;SDS011;553;51.038;7.216;2023-02-22T06:22:54;54.27;;;29.27;;
1128;SDS011;553;51.038;7.216;2023-02-22T06:25:23;58.53;;;29.77;;
1128;SDS011;553;51.038;7.216;2023-02-22T06:27:52;51.13;;;28.10;;
1128;SDS011;553;51.038;7.216;2023-02-22T06:30:20;60.83;;;29.93;;
1128;SDS011;553;51.038;7.216;2023-02-22T06:32:49;55.57;;;29.67;;
1128;SDS011;553;51.038;7.216;2023-02-22T06:35:16;58.47;;;31.97;;
1128;SDS011;553;51.038;7.216;2023-02-22T06:37:43;51.73;;;28.07;;
1128;SDS011;553;51.038;7.216;2023-02-22T06:40:10;51.70;;;28.53;;
1128;SDS011;553;51.038;7.216;2023-02-22T06:42:38;65.00;;;31.93;;
1128;SDS011;553;51.038;7.216;2023-02-22T06:45:06;60.60;;;32.27;;
1128;SDS011;553;51.038;7.216;2023-02-22T06:47:36;52.10;;;28.43;;
1128;SDS011;553;51.038;7.216;2023-02-22T06:50:04;55.50;;;28.77;;
1128;SDS011;553;51.038;7.216;2023-02-22T06:52:32;56.90;;;28.90;;
1128;SDS011;553;51.038;7.216;2023-02-22T06:54:58;43.97;;;25.53;;
1128;SDS011;553;51.038;7.216;2023-02-22T06:57:25;55.90;;;29.57;;
1128;SDS011;553;51.038;7.216;2023-02-22T06:59:52;58.57;;;29.83;;
1128;SDS011;553;51.038;7.216;2023-02-22T07:02:19;55.70;;;28.23;;
1128;SDS011;553;51.038;7.216;2023-02-22T07:04:45;59.03;;;31.30;;
1128;SDS011;553;51.038;7.216;2023-02-22T07:07:12;64.47;;;31.87;;
1128;SDS011;553;51.038;7.216;2023-02-22T07:09:39;59.90;;;31.80;;
1128;SDS011;553;51.038;7.216;2023-02-22T07:12:05;64.47;;;31.03;;
1128;SDS011;553;51.038;7.216;2023-02-22T07:14:32;61.93;;;32.10;;
1128;SDS011;553;51.038;7.216;2023-02-22T07:16:59;79.77;;;34.83;;
1128;SDS011;553;51.038;7.216;2023-02-22T07:19:26;61.33;;;31.93;;
1128;SDS011;553;51.038;7.216;2023-02-22T07:21:54;68.10;;;34.00;;
1128;SDS011;553;51.038;7.216;2023-02-22T07:24:24;73.53;;;33.57;;
1128;SDS011;553;51.038;7.216;2023-02-22T07:26:53;67.80;;;32.53;;
1128;SDS011;553;51.038;7.216;2023-02-22T07:29:20;63.30;;;32.33;;
1128;SDS011;553;51.038;7.216;2023-02-22T07:31:47;59.70;;;32.43;;
1128;SDS011;553;51.038;7.216;2023-02-22T07:34:14;66.13;;;31.40;;
1128;SDS011;553;51.038;7.216;2023-02-22T07:36:41;60.43;;;32.40;;
1128;SDS011;553;51.038;7.216;2023-02-22T07:39:08;81.93;;;36.00;;
1128;SDS011;553;51.038;7.216;2023-02-22T07:41:35;73.17;;;33.50;;
1128;SDS011;553;51.038;7.216;2023-02-22T07:44:10;69.67;;;31.97;;
1128;SDS011;553;51.038;7.216;2023-02-22T07:46:38;66.43;;;32.10;;
1128;SDS011;553;51.038;7.216;2023-02-22T07:49:04;69.13;;;33.00;;
1128;SDS011;553;51.038;7.216;2023-02-22T07:51:31;70.67;;;34.60;;
1128;SDS011;553;51.038;7.216;2023-02-22T07:53:58;71.63;;;35.10;;
1128;SDS011;553;51.038;7.216;2023-02-22T07:56:24;57.47;;;31.53;;
1128;SDS011;553;51.038;7.216;2023-02-22T07:58:51;58.60;;;33.43;;
1128;SDS011;553;51.038;7.216;2023-02-22T08:01:18;61.87;;;35.10;;
1128;SDS011;553;51.038;7.216;2023-02-22T08:03:45;71.50;;;36.80;;
1128;SDS011;553;51.038;7.216;2023-02-22T08:06:12;55.47;;;32.70;;
1128;SDS011;553;51.038;7.216;2023-02-22T08:08:39;58.80;;;33.23;;
1128;SDS011;553;51.038;7.216;2023-02-22T08:11:06;64.23;;;33.70;;
1128;SDS011;553;51.038;7.216;2023-02-22T08:13:32;61.30;;;32.63;;
1128;SDS011;553;51.038;7.216;2023-02-22T08:16:02;55.67;;;31.60;;
1128;SDS011;553;51.038;7.216;2023-02-22T08:18:29;61.67;;;31.13;;
1128;SDS011;553;51.038;7.216;2023-02-22T08:20:56;53.00;;;31.30;;
1128;SDS011;553;51.038;7.216;2023-02-22T08:23:24;49.27;;;29.23;;
1128;SDS011;553;51.038;7.216;2023-02-22T08:25:52;58.23;;;35.57;;
1128;SDS011;553;51.038;7.216;2023-02-22T08:28:20;51.60;;;28.83;;
1128;SDS011;553;51.038;7.216;2023-02-22T08:30:48;44.73;;;26.47;;
1128;SDS011;553;51.038;7.216;2023-02-22T08:33:16;49.70;;;28.90;;
1128;SDS011;553;51.038;7.216;2023-02-22T08:35:45;48.97;;;28.27;;
1128;SDS011;553;51.038;7.216;2023-02-22T08:38:19;59.47;;;28.50;;
1128;SDS011;553;51.038;7.216;2023-02-22T08:40:48;44.63;;;25.50;;
1128;SDS011;553;51.038;7.216;2023-02-22T08:43:15;44.67;;;25.73;;
1128;SDS011;553;51.038;7.216;2023-02-22T08:45:43;41.73;;;24.87;;
1128;SDS011;553;51.038;7.216;2023-02-22T08:48:11;37.17;;;23.10;;
1128;SDS011;553;51.038;7.216;2023-02-22T08:50:39;43.93;;;23.67;;
1128;SDS011;553;51.038;7.216;2023-02-22T08:53:07;37.57;;;21.67;;
1128;SDS011;553;51.038;7.216;2023-02-22T08:55:36;34.70;;;21.17;;
1128;SDS011;553;51.038;7.216;2023-02-22T08:58:05;36.93;;;20.47;;
1128;SDS011;553;51.038;7.216;2023-02-22T09:00:34;28.67;;;18.80;;
1128;SDS011;553;51.038;7.216;2023-02-22T09:03:04;29.47;;;19.30;;
1128;SDS011;553;51.038;7.216;2023-02-22T09:05:33;30.03;;;19.30;;
1128;SDS011;553;51.038;7.216;2023-02-22T09:07:59;27.77;;;18.60;;
1128;SDS011;553;51.038;7.216;2023-02-22T09:10:28;25.13;;;17.97;;
1128;SDS011;553;51.038;7.216;2023-02-22T09:12:57;26.80;;;19.23;;
1128;SDS011;553;51.038;7.216;2023-02-22T09:15:26;30.83;;;18.00;;
1128;SDS011;553;51.038;7.216;2023-02-22T09:17:53;27.00;;;18.00;;
1128;SDS011;553;51.038;7.216;2023-02-22T09:20:21;29.40;;;19.13;;
1128;SDS011;553;51.038;7.216;2023-02-22T09:22:49;34.40;;;19.80;;
1128;SDS011;553;51.038;7.216;2023-02-22T09:25:16;34.80;;;21.30;;
1128;SDS011;553;51.038;7.216;2023-02-22T09:27:46;31.27;;;21.60;;
1128;SDS011;553;51.038;7.216;2023-02-22T09:30:15;33.93;;;25.53;;
1128;SDS011;553;51.038;7.216;2023-02-22T09:32:44;29.20;;;19.57;;
1128;SDS011;553;51.038;7.216;2023-02-22T09:35:11;24.43;;;17.30;;
1128;SDS011;553;51.038;7.216;2023-02-22T09:37:38;25.80;;;17.63;;
1128;SDS011;553;51.038;7.216;2023-02-22T09:40:05;26.67;;;17.57;;
1128;SDS011;553;51.038;7.216;2023-02-22T09:42:38;27.37;;;18.33;;
1128;SDS011;553;51.038;7.216;2023-02-22T09:45:21;26.70;;;17.83;;
1128;SDS011;553;51.038;7.216;2023-02-22T09:47:55;28.20;;;16.47;;
1128;SDS011;553;51.038;7.216;2023-02-22T09:50:40;25.90;;;15.13;;
1128;SDS011;553;51.038;7.216;2023-02-22T09:55:59;27.20;;;16.63;;
1128;SDS011;553;51.038;7.216;2023-02-22T09:58:32;22.23;;;16.20;;
1128;SDS011;553;51.038;7.216;2023-02-22T10:04:02;25.23;;;15.30;;
1128;SDS011;553;51.038;7.216;2023-02-22T10:06:41;25.43;;;15.40;;
1128;SDS011;553;51.038;7.216;2023-02-22T10:09:18;23.10;;;14.20;;
1128;SDS011;553;51.038;7.216;2023-02-22T10:11:49;26.33;;;16.97;;
1128;SDS011;553;51.038;7.216;2023-02-22T10:16:58;22.13;;;14.00;;
1128;SDS011;553;51.038;7.216;2023-02-22T10:22:44;18.57;;;13.10;;
1128;SDS011;553;51.038;7.216;2023-02-22T10:25:14;19.73;;;13.20;;
1128;SDS011;553;51.038;7.216;2023-02-22T10:27:46;16.90;;;11.60;;
1128;SDS011;553;51.038;7.216;2023-02-22T10:30:25;17.90;;;11.63;;
1128;SDS011;553;51.038;7.216;2023-02-22T10:35:46;16.30;;;10.93;;
1128;SDS011;553;51.038;7.216;2023-02-22T10:38:18;18.97;;;11.90;;
1128;SDS011;553;51.038;7.216;2023-02-22T10:40:48;19.87;;;11.90;;
1128;SDS011;553;51.038;7.216;2023-02-22T10:43:24;19.17;;;10.73;;
1128;SDS011;553;51.038;7.216;2023-02-22T10:45:51;18.00;;;11.10;;
1128;SDS011;553;51.038;7.216;2023-02-22T10:48:22;15.57;;;11.10;;
1128;SDS011;553;51.038;7.216;2023-02-22T10:50:51;15.60;;;10.03;;
1128;SDS011;553;51.038;7.216;2023-02-22T10:53:25;15.13;;;9.90;;
1128;SDS011;553;51.038;7.216;2023-02-22T11:04:18;13.30;;;8.40;;
1128;SDS011;553;51.038;7.216;2023-02-22T11:09:30;12.80;;;9.23;;
1128;SDS011;553;51.038;7.216;2023-02-22T11:12:16;11.37;;;8.27;;
1128;SDS011;553;51.038;7.216;2023-02-22T11:14:52;12.23;;;8.23;;
1128;SDS011;553;51.038;7.216;2023-02-22T11:17:23;10.57;;;8.80;;
1128;SDS011;553;51.038;7.216;2023-02-22T11:19:55;11.83;;;8.47;;
1128;SDS011;553;51.038;7.216;2023-02-22T11:22:24;12.50;;;7.00;;
1128;SDS011;553;51.038;7.216;2023-02-22T11:25:00;11.70;;;8.10;;
1128;SDS011;553;51.038;7.216;2023-02-22T11:27:42;15.20;;;8.03;;
1128;SDS011;553;51.038;7.216;2023-02-22T11:30:26;14.37;;;9.17;;
1128;SDS011;553;51.038;7.216;2023-02-22T11:35:48;12.13;;;8.20;;
1128;SDS011;553;51.038;7.216;2023-02-22T11:38:41;9.57;;;7.53;;
1128;SDS011;553;51.038;7.216;2023-02-22T11:41:19;9.20;;;7.07;;
1128;SDS011;553;51.038;7.216;2023-02-22T11:43:52;13.10;;;7.17;;
1128;SDS011;553;51.038;7.216;2023-02-22T11:46:24;13.47;;;8.40;;
1128;SDS011;553;51.038;7.216;2023-02-22T11:49:05;12.27;;;7.87;;
1128;SDS011;553;51.038;7.216;2023-02-22T11:54:29;12.70;;;8.50;;
1128;SDS011;553;51.038;7.216;2023-02-22T11:57:20;10.00;;;7.30;;
1128;SDS011;553;51.038;7.216;2023-02-22T12:02:45;10.60;;;7.70;;
1128;SDS011;553;51.038;7.216;2023-02-22T12:05:46;12.73;;;7.13;;
1128;SDS011;553;51.038;7.216;2023-02-22T12:11:11;10.23;;;7.17;;
1128;SDS011;553;51.038;7.216;2023-02-22T12:14:03;11.43;;;6.97;;
1128;SDS011;553;51.038;7.216;2023-02-22T12:19:30;9.97;;;6.60;;
1128;SDS011;553;51.038;7.216;2023-02-22T12:22:09;10.97;;;7.30;;
1128;SDS011;553;51.038;7.216;2023-02-22T12:27:37;12.47;;;7.70;;
1128;SDS011;553;51.038;7.216;2023-02-22T12:32:49;12.63;;;7.23;;
1128;SDS011;553;51.038;7.216;2023-02-22T12:35:22;9.30;;;6.73;;
1128;SDS011;553;51.038;7.216;2023-02-22T12:37:56;10.30;;;7.43;;
1128;SDS011;553;51.038;7.216;2023-02-22T12:40:45;11.73;;;7.53;;
1128;SDS011;553;51.038;7.216;2023-02-22T12:43:35;9.70;;;7.57;;
1128;SDS011;553;51.038;7.216;2023-02-22T12:48:47;11.20;;;6.40;;
1128;SDS011;553;51.038;7.216;2023-02-22T12:51:27;16.50;;;10.43;;
1128;SDS011;553;51.038;7.216;2023-02-22T12:56:44;12.17;;;9.40;;
1128;SDS011;553;51.038;7.216;2023-02-22T13:02:10;11.50;;;7.57;;
1128;SDS011;553;51.038;7.216;2023-02-22T13:04:47;13.33;;;8.10;;
1128;SDS011;553;51.038;7.216;2023-02-22T13:07:17;8.90;;;6.73;;
1128;SDS011;553;51.038;7.216;2023-02-22T13:18:01;14.30;;;6.60;;
1128;SDS011;553;51.038;7.216;2023-02-22T13:23:47;14.53;;;7.20;;
1128;SDS011;553;51.038;7.216;2023-02-22T13:26:31;11.73;;;6.63;;
1128;SDS011;553;51.038;7.216;2023-02-22T13:29:21;8.20;;;6.47;;
1128;SDS011;553;51.038;7.216;2023-02-22T13:37:55;11.17;;;6.33;;
1128;SDS011;553;51.038;7.216;2023-02-22T13:43:18;11.73;;;7.10;;
1128;SDS011;553;51.038;7.216;2023-02-22T13:57:17;14.07;;;7.67;;
1128;SDS011;553;51.038;7.216;2023-02-22T14:00:17;9.63;;;6.90;;
1128;SDS011;553;51.038;7.216;2023-02-22T14:13:12;13.60;;;8.20;;
1128;SDS011;553;51.038;7.216;2023-02-22T14:18:23;11.03;;;7.83;;
1128;SDS011;553;51.038;7.216;2023-02-22T14:21:07;10.10;;;6.83;;
1128;SDS011;553;51.038;7.216;2023-02-22T14:23:37;12.83;;;7.30;;
1128;SDS011;553;51.038;7.216;2023-02-22T14:28:57;11.50;;;7.17;;
1128;SDS011;553;51.038;7.216;2023-02-22T14:31:32;11.00;;;7.20;;
1128;SDS011;553;51.038;7.216;2023-02-22T14:34:04;12.30;;;7.97;;
1128;SDS011;553;51.038;7.216;2023-02-22T14:39:22;11.70;;;6.90;;
1128;SDS011;553;51.038;7.216;2023-02-22T14:47:43;9.87;;;6.93;;
1128;SDS011;553;51.038;7.216;2023-02-22T14:53:11;10.27;;;7.30;;
1128;SDS011;553;51.038;7.216;2023-02-22T14:55:46;10.27;;;7.30;;
1128;SDS011;553;51.038;7.216;2023-02-22T14:58:33;12.33;;;7.50;;
1128;SDS011;553;51.038;7.216;2023-02-22T15:01:14;11.00;;;7.03;;
1128;SDS011;553;51.038;7.216;2023-02-22T15:03:45;11.37;;;7.40;;
1128;SDS011;553;51.038;7.216;2023-02-22T15:06:19;11.63;;;7.40;;
1128;SDS011;553;51.038;7.216;2023-02-22T15:09:03;8.50;;;6.70;;
1128;SDS011;553;51.038;7.216;2023-02-22T15:11:32;11.40;;;7.80;;
1128;SDS011;553;51.038;7.216;2023-02-22T15:13:59;11.30;;;7.60;;
1128;SDS011;553;51.038;7.216;2023-02-22T15:16:30;11.33;;;7.70;;
1128;SDS011;553;51.038;7.216;2023-02-22T15:19:03;10.17;;;7.77;;
1128;SDS011;553;51.038;7.216;2023-02-22T15:21:33;8.90;;;7.17;;
1128;SDS011;553;51.038;7.216;2023-02-22T15:24:04;13.10;;;8.60;;
1128;SDS011;553;51.038;7.216;2023-02-22T15:26:36;10.80;;;7.47;;
1128;SDS011;553;51.038;7.216;2023-02-22T15:29:21;10.27;;;6.93;;
1128;SDS011;553;51.038;7.216;2023-02-22T15:31:57;11.30;;;7.80;;
1128;SDS011;553;51.038;7.216;2023-02-22T15:34:29;9.40;;;7.30;;
1128;SDS011;553;51.038;7.216;2023-02-22T15:37:00;10.33;;;7.57;;
1128;SDS011;553;51.038;7.216;2023-02-22T15:39:44;11.90;;;7.87;;
1128;SDS011;553;51.038;7.216;2023-02-22T15:42:14;15.27;;;7.57;;
1128;SDS011;553;51.038;7.216;2023-02-22T15:44:46;11.43;;;7.37;;
1128;SDS011;553;51.038;7.216;2023-02-22T15:47:36;11.50;;;8.47;;
1128;SDS011;553;51.038;7.216;2023-02-22T15:50:21;9.73;;;6.73;;
1128;SDS011;553;51.038;7.216;2023-02-22T15:52:52;11.33;;;7.40;;
1128;SDS011;553;51.038;7.216;2023-02-22T15:58:06;8.37;;;3.80;;
1128;SDS011;553;51.038;7.216;2023-02-22T16:00:57;13.17;;;7.30;;
1128;SDS011;553;51.038;7.216;2023-02-22T16:03:25;13.90;;;7.20;;
1128;SDS011;553;51.038;7.216;2023-02-22T16:05:54;9.60;;;6.00;;
1128;SDS011;553;51.038;7.216;2023-02-22T16:08:22;10.47;;;6.67;;
1128;SDS011;553;51.038;7.216;2023-02-22T16:11:31;16.33;;;7.30;;
1128;SDS011;553;51.038;7.216;2023-02-22T16:14:01;10.27;;;7.67;;
1128;SDS011;553;51.038;7.216;2023-02-22T16:16:34;9.67;;;7.03;;
1128;SDS011;553;51.038;7.216;2023-02-22T16:19:26;16.00;;;7.80;;
1128;SDS011;553;51.038;7.216;2023-02-22T16:21:59;12.77;;;6.87;;
1128;SDS011;553;51.038;7.216;2023-02-22T16:24:29;10.67;;;7.00;;
1128;SDS011;553;51.038;7.216;2023-02-22T16:29:31;12.70;;;7.93;;
1128;SDS011;553;51.038;7.216;2023-02-22T16:31:57;9.53;;;7.63;;
1128;SDS011;553;51.038;7.216;2023-02-22T16:34:24;12.63;;;8.07;;
1128;SDS011;553;51.038;7.216;2023-02-22T16:36:51;11.40;;;7.70;;
1128;SDS011;553;51.038;7.216;2023-02-22T16:39:19;14.57;;;9.00;;
1128;SDS011;553;51.038;7.216;2023-02-22T16:41:53;11.80;;;8.60;;
1128;SDS011;553;51.038;7.216;2023-02-22T16:44:22;10.03;;;8.53;;
1128;SDS011;553;51.038;7.216;2023-02-22T16:46:50;11.10;;;8.47;;
1128;SDS011;553;51.038;7.216;2023-02-22T16:49:18;11.77;;;8.90;;
1128;SDS011;553;51.038;7.216;2023-02-22T16:51:52;14.60;;;8.90;;
1128;SDS011;553;51.038;7.216;2023-02-22T16:54:25;14.97;;;9.10;;
1128;SDS011;553;51.038;7.216;2023-02-22T16:56:54;14.60;;;9.07;;
1128;SDS011;553;51.038;7.216;2023-02-22T16:59:25;13.30;;;8.07;;
1128;SDS011;553;51.038;7.216;2023-02-22T17:01:52;14.40;;;8.53;;
1128;SDS011;553;51.038;7.216;2023-02-22T17:04:20;13.60;;;8.37;;
1128;SDS011;553;51.038;7.216;2023-02-22T17:06:49;19.70;;;7.97;;
1128;SDS011;553;51.038;7.216;2023-02-22T17:09:16;11.43;;;7.87;;
1128;SDS011;553;51.038;7.216;2023-02-22T17:11:48;12.20;;;7.10;;
1128;SDS011;553;51.038;7.216;2023-02-22T17:14:17;16.67;;;10.17;;
1128;SDS011;553;51.038;7.216;2023-02-22T17:16:49;14.20;;;9.17;;
1128;SDS011;553;51.038;7.216;2023-02-22T17:19:17;11.17;;;8.30;;
1128;SDS011;553;51.038;7.216;2023-02-22T17:21:46;13.90;;;9.37;;
1128;SDS011;553;51.038;7.216;2023-02-22T17:24:16;12.20;;;9.17;;
1128;SDS011;553;51.038;7.216;2023-02-22T17:26:45;11.13;;;6.87;;
1128;SDS011;553;51.038;7.216;2023-02-22T17:29:12;11.30;;;7.80;;
1128;SDS011;553;51.038;7.216;2023-02-22T17:31:40;10.93;;;7.60;;
1128;SDS011;553;51.038;7.216;2023-02-22T17:34:07;11.10;;;8.07;;
1128;SDS011;553;51.038;7.216;2023-02-22T17:36:34;15.73;;;8.97;;
1128;SDS011;553;51.038;7.216;2023-02-22T17:39:02;11.10;;;8.40;;
1128;SDS011;553;51.038;7.216;2023-02-22T17:41:30;12.87;;;8.60;;
1128;SDS011;553;51.038;7.216;2023-02-22T17:43:56;14.80;;;9.50;;
1128;SDS011;553;51.038;7.216;2023-02-22T17:46:23;11.90;;;8.67;;
1128;SDS011;553;51.038;7.216;2023-02-22T17:48:50;10.30;;;8.40;;
1128;SDS011;553;51.038;7.216;2023-02-22T17:51:22;12.57;;;9.40;;
1128;SDS011;553;51.038;7.216;2023-02-22T17:53:51;11.20;;;8.77;;
1128;SDS011;553;51.038;7.216;2023-02-22T17:56:18;12.67;;;9.93;;
1128;SDS011;553;51.038;7.216;2023-02-22T17:58:46;17.77;;;11.50;;
1128;SDS011;553;51.038;7.216;2023-02-22T18:01:25;16.40;;;10.80;;
1128;SDS011;553;51.038;7.216;2023-02-22T18:03:57;18.50;;;10.97;;
1128;SDS011;553;51.038;7.216;2023-02-22T18:06:26;18.00;;;10.70;;
1128;SDS011;553;51.038;7.216;2023-02-22T18:08:55;17.17;;;10.83;;
1128;SDS011;553;51.038;7.216;2023-02-22T18:11:24;15.80;;;10.33;;
1128;SDS011;553;51.038;7.216;2023-02-22T18:13:52;14.10;;;11.30;;